Time;durP1;ratioP1;P1;durP2;ratioP2;P2;SDS_P1;SDS_P2;PMS_P1;PMS_P2;Temp;Humidity;BMP_temperature;BMP_pressure;BME280_temperature;BME280_humidity;BME280_pressure;Samples;Min_cycle;Max_cycle;Signal;HPM_P1;HPM_P2
2022/05/15 00:01:49;;;;;;;5.20;3.30;;;20.20;96.70;;;;;;6307025;22;20025;-66
2022/05/15 00:04:16;;;;;;;5.43;3.67;;;20.20;96.70;;;;;;6307324;22;20022;-66
2022/05/15 00:06:44;;;;;;;4.50;3.70;;;20.30;96.60;;;;;;6279314;22;20007;-66
2022/05/15 00:09:11;;;;;;;3.88;3.28;;;20.40;96.30;;;;;;6307441;22;20076;-66
2022/05/15 00:11:38;;;;;;;4.78;3.70;;;20.40;96.20;;;;;;6306894;22;20025;-66
2022/05/15 00:14:05;;;;;;;5.35;3.40;;;20.50;96.10;;;;;;6307207;22;20003;-66
2022/05/15 00:16:33;;;;;;;5.32;3.53;;;20.50;95.80;;;;;;6307272;22;20003;-66
2022/05/15 00:19:01;;;;;;;4.80;3.47;;;20.50;95.70;;;;;;6307312;22;20049;-66
2022/05/15 00:21:28;;;;;;;3.83;3.35;;;20.50;95.50;;;;;;6306914;22;20350;-66
2022/05/15 00:23:55;;;;;;;8.07;3.60;;;20.60;95.40;;;;;;6307242;22;20007;-65
2022/05/15 00:26:22;;;;;;;6.07;3.50;;;20.60;95.30;;;;;;6306946;22;20044;-66
2022/05/15 00:28:49;;;;;;;6.57;4.25;;;20.60;95.10;;;;;;6306490;22;20090;-67
2022/05/15 00:31:16;;;;;;;5.22;3.75;;;20.70;94.90;;;;;;6307285;22;20076;-67
2022/05/15 00:33:44;;;;;;;4.05;3.47;;;20.70;94.70;;;;;;6306977;22;19995;-66
2022/05/15 00:36:12;;;;;;;4.30;3.50;;;20.70;94.50;;;;;;6307445;22;20066;-66
2022/05/15 00:38:39;;;;;;;7.63;3.55;;;20.70;94.20;;;;;;6306330;22;20031;-67
2022/05/15 00:41:07;;;;;;;8.13;3.72;;;20.80;94.10;;;;;;6306494;22;20128;-67
2022/05/15 00:44:00;;;;;;;6.50;2.83;;;20.80;94.00;;;;;;6306761;22;20006;-67
2022/05/15 00:46:36;;;;;;;5.57;3.50;;;20.80;93.70;;;;;;6300735;22;20003;-66
2022/05/15 00:49:06;;;;;;;4.90;3.40;;;20.80;94.00;;;;;;6306623;22;20032;-66
2022/05/15 00:51:37;;;;;;;6.00;3.33;;;20.80;94.10;;;;;;6279234;22;20018;-66
2022/05/15 00:54:18;;;;;;;5.10;3.50;;;20.80;93.90;;;;;;6306981;22;20002;-65
2022/05/15 00:57:07;;;;;;;5.70;3.20;;;20.90;93.60;;;;;;6279792;22;20045;-66
2022/05/15 00:59:40;;;;;;;6.63;3.50;;;20.90;93.40;;;;;;6283592;22;20422;-66
2022/05/15 01:02:11;;;;;;;5.28;3.55;;;21.00;93.70;;;;;;6280891;22;20071;-66
2022/05/15 01:04:38;;;;;;;3.58;3.03;;;21.00;93.60;;;;;;6254894;22;20007;-66
2022/05/15 01:07:05;;;;;;;4.82;3.00;;;21.00;93.50;;;;;;6279588;22;19999;-66
2022/05/15 01:09:32;;;;;;;5.78;3.22;;;21.00;93.70;;;;;;6306138;22;20418;-66
2022/05/15 01:12:01;;;;;;;3.92;2.90;;;21.00;93.60;;;;;;6279329;22;20417;-66
2022/05/15 01:14:29;;;;;;;4.85;2.70;;;21.10;93.60;;;;;;6279523;22;19999;-66
2022/05/15 01:16:56;;;;;;;3.45;2.83;;;21.10;93.30;;;;;;6306743;22;19998;-66
2022/05/15 01:19:31;;;;;;;4.13;2.70;;;21.10;93.30;;;;;;6279640;22;20426;-66
2022/05/15 01:21:58;;;;;;;3.58;2.85;;;21.10;93.40;;;;;;6306552;22;19999;-66
2022/05/15 01:24:25;;;;;;;4.40;2.78;;;21.20;93.00;;;;;;6306165;22;20003;-66
2022/05/15 01:26:53;;;;;;;3.67;2.85;;;21.20;92.60;;;;;;6306160;22;19999;-66
2022/05/15 01:29:27;;;;;;;4.55;2.85;;;21.30;92.60;;;;;;6306564;22;20020;-67
2022/05/15 01:31:54;;;;;;;4.55;2.92;;;21.30;92.20;;;;;;6281016;22;20475;-66
2022/05/15 01:34:21;;;;;;;5.50;3.05;;;21.30;92.10;;;;;;6305966;22;20013;-66
2022/05/15 01:36:50;;;;;;;3.92;3.15;;;21.30;91.80;;;;;;6279427;22;19995;-66
2022/05/15 01:39:17;;;;;;;4.88;2.85;;;21.30;91.90;;;;;;6306325;22;20066;-66
2022/05/15 01:41:44;;;;;;;5.10;3.00;;;21.40;91.90;;;;;;6306515;22;20003;-66
2022/05/15 01:44:11;;;;;;;6.45;3.10;;;21.30;91.70;;;;;;6306566;22;20006;-66
2022/05/15 01:46:38;;;;;;;4.13;2.63;;;21.30;91.50;;;;;;6306261;22;20018;-66
2022/05/15 01:49:06;;;;;;;5.93;2.83;;;21.30;91.20;;;;;;6279064;22;20003;-66
2022/05/15 01:51:34;;;;;;;3.92;2.58;;;21.30;90.90;;;;;;6306257;22;20026;-66
2022/05/15 01:54:02;;;;;;;4.20;2.47;;;21.40;91.10;;;;;;6254082;22;20000;-66
2022/05/15 01:56:29;;;;;;;4.47;2.55;;;21.40;91.00;;;;;;6306286;22;20056;-66
2022/05/15 01:58:57;;;;;;;3.67;2.50;;;21.40;90.90;;;;;;6305949;22;19995;-66
2022/05/15 02:01:24;;;;;;;6.40;2.53;;;21.40;90.80;;;;;;6278364;22;20007;-65
2022/05/15 02:03:51;;;;;;;2.60;2.00;;;21.50;90.90;;;;;;6305922;22;20008;-66
2022/05/15 02:06:19;;;;;;;4.63;2.40;;;21.50;90.70;;;;;;6305581;22;20010;-66
2022/05/15 02:08:48;;;;;;;4.15;2.40;;;21.50;90.80;;;;;;6306068;22;20000;-66
2022/05/15 02:11:15;;;;;;;3.90;2.47;;;21.50;90.80;;;;;;6306255;22;20011;-66
2022/05/15 02:13:42;;;;;;;4.22;2.38;;;21.50;90.60;;;;;;6306055;22;20003;-66
2022/05/15 02:16:09;;;;;;;3.28;2.10;;;21.60;90.30;;;;;;6305663;22;20062;-66
2022/05/15 02:18:36;;;;;;;3.10;2.25;;;21.60;90.50;;;;;;6278162;22;20372;-66
2022/05/15 02:21:04;;;;;;;3.20;2.30;;;21.70;89.80;;;;;;6305649;22;20334;-66
2022/05/15 02:23:32;;;;;;;3.13;2.10;;;21.70;89.50;;;;;;6306330;22;20019;-66
2022/05/15 02:25:59;;;;;;;2.78;2.05;;;21.70;89.60;;;;;;6305668;22;20015;-66
2022/05/15 02:28:27;;;;;;;3.42;2.00;;;21.80;89.60;;;;;;6298936;22;20080;-66
2022/05/15 02:30:54;;;;;;;3.45;2.28;;;21.80;89.10;;;;;;6336665;22;20384;-65
2022/05/15 02:33:21;;;;;;;3.67;2.20;;;21.80;89.40;;;;;;6337084;22;19999;-66
2022/05/15 02:35:48;;;;;;;3.58;2.00;;;21.80;88.90;;;;;;6336956;22;20048;-66
2022/05/15 02:38:15;;;;;;;3.45;1.90;;;21.90;88.90;;;;;;6309459;22;20003;-66
2022/05/15 02:40:43;;;;;;;2.17;1.95;;;21.90;88.40;;;;;;6336861;22;19999;-66
2022/05/15 02:43:10;;;;;;;3.38;2.00;;;22.00;88.10;;;;;;6337249;22;20036;-66
2022/05/15 02:45:37;;;;;;;2.00;1.45;;;22.00;88.10;;;;;;6336956;22;20003;-66
2022/05/15 02:48:04;;;;;;;2.60;1.70;;;22.00;86.90;;;;;;6309838;22;20006;-66
2022/05/15 02:53:17;;;;;;;1.20;1.10;;;21.90;85.30;;;;;;6337072;22;20014;-66
2022/05/15 02:55:44;;;;;;;1.10;1.00;;;21.90;86.30;;;;;;6309580;22;20014;-67
2022/05/15 02:58:11;;;;;;;1.17;1.08;;;21.90;85.70;;;;;;6336893;22;19994;-66
2022/05/15 03:00:38;;;;;;;2.33;1.20;;;21.90;85.50;;;;;;6336537;22;20013;-66
2022/05/15 03:03:06;;;;;;;1.30;1.20;;;21.90;85.00;;;;;;6336638;22;20003;-66
2022/05/15 03:05:33;;;;;;;2.22;1.25;;;22.00;84.90;;;;;;6309172;22;20033;-66
2022/05/15 03:08:00;;;;;;;2.15;1.10;;;22.00;84.10;;;;;;6336521;22;20007;-66
2022/05/15 03:10:29;;;;;;;3.50;1.15;;;22.00;83.80;;;;;;6336357;22;20014;-66
2022/05/15 03:12:56;;;;;;;1.45;1.05;;;22.00;84.10;;;;;;6337156;22;20070;-66
2022/05/15 03:15:23;;;;;;;1.30;1.00;;;22.00;83.40;;;;;;6336447;22;19998;-66
2022/05/15 03:17:50;;;;;;;1.40;1.02;;;22.00;83.20;;;;;;6336955;22;20007;-65
2022/05/15 03:20:19;;;;;;;1.95;1.10;;;22.00;83.60;;;;;;6336879;22;20003;-66
2022/05/15 03:22:46;;;;;;;1.65;1.00;;;22.00;83.70;;;;;;6308931;22;20002;-66
2022/05/15 03:25:13;;;;;;;1.55;1.10;;;22.00;83.10;;;;;;6336712;22;20027;-66
2022/05/15 03:27:40;;;;;;;1.95;1.10;;;21.90;83.60;;;;;;6325505;22;20022;-66
2022/05/15 03:30:08;;;;;;;1.20;1.10;;;22.00;83.90;;;;;;6305965;22;20090;-66
2022/05/15 03:32:37;;;;;;;2.53;1.30;;;22.00;84.30;;;;;;6307375;22;19995;-67
2022/05/15 03:35:05;;;;;;;1.33;1.10;;;22.00;84.50;;;;;;6307044;22;20003;-67
2022/05/15 03:37:32;;;;;;;2.92;1.00;;;22.00;83.70;;;;;;6279648;22;20018;-67
2022/05/15 03:39:59;;;;;;;1.88;1.25;;;22.00;83.00;;;;;;6280014;22;20010;-67
2022/05/15 03:42:28;;;;;;;2.22;1.20;;;22.00;83.00;;;;;;6307130;22;20006;-66
2022/05/15 03:44:55;;;;;;;2.75;1.20;;;22.10;83.10;;;;;;6279663;22;20367;-66
2022/05/15 03:47:22;;;;;;;1.35;1.10;;;22.00;83.00;;;;;;6307508;22;20004;-67
2022/05/15 03:49:50;;;;;;;4.20;1.10;;;22.00;83.30;;;;;;6307103;22;20056;-67
2022/05/15 03:52:17;;;;;;;3.10;1.40;;;22.00;83.30;;;;;;6307846;22;20030;-67
2022/05/15 03:54:46;;;;;;;1.75;1.30;;;22.00;84.40;;;;;;6307305;22;19995;-67
2022/05/15 03:57:14;;;;;;;3.63;1.30;;;22.00;84.50;;;;;;6307266;22;20003;-67
2022/05/15 03:59:41;;;;;;;2.95;1.40;;;22.00;85.20;;;;;;6307252;22;20037;-66
2022/05/15 04:02:09;;;;;;;3.30;1.60;;;22.00;84.80;;;;;;6306895;22;19999;-67
2022/05/15 04:04:37;;;;;;;2.97;1.65;;;22.00;84.70;;;;;;6307381;22;20516;-66
2022/05/15 04:07:04;;;;;;;4.70;1.50;;;22.00;84.90;;;;;;6279670;22;19999;-67
2022/05/15 04:09:32;;;;;;;2.92;1.73;;;22.00;85.20;;;;;;6279569;22;20015;-67
2022/05/15 04:11:59;;;;;;;3.17;1.40;;;22.00;85.60;;;;;;6305696;22;20433;-67
2022/05/15 04:14:27;;;;;;;2.47;1.48;;;22.10;85.00;;;;;;6307291;22;20018;-67
2022/05/15 04:16:54;;;;;;;2.50;1.60;;;22.10;84.90;;;;;;6279950;22;20003;-66
2022/05/15 04:19:22;;;;;;;3.50;1.48;;;22.10;85.10;;;;;;6307213;22;20014;-67
2022/05/15 04:21:49;;;;;;;2.08;1.40;;;22.10;85.40;;;;;;6306785;22;20074;-66
2022/05/15 04:24:17;;;;;;;7.65;2.25;;;22.10;85.30;;;;;;6306484;22;20414;-66
2022/05/15 04:26:44;;;;;;;4.75;2.60;;;22.10;85.80;;;;;;6306745;22;20037;-67
2022/05/15 04:29:12;;;;;;;4.18;2.40;;;22.20;86.50;;;;;;6306285;22;20011;-67
2022/05/15 04:31:39;;;;;;;6.15;2.45;;;22.20;86.60;;;;;;6306189;22;20383;-67
2022/05/15 04:34:06;;;;;;;7.28;3.28;;;22.10;86.70;;;;;;6306987;22;19995;-66
2022/05/15 04:36:34;;;;;;;4.43;2.58;;;22.20;86.80;;;;;;6279201;22;20008;-66
2022/05/15 04:39:02;;;;;;;5.05;2.42;;;22.10;86.60;;;;;;6307137;22;20073;-66
2022/05/15 04:41:29;;;;;;;4.18;2.40;;;22.10;86.70;;;;;;6279663;22;20007;-66
2022/05/15 04:43:56;;;;;;;4.60;2.50;;;22.10;86.60;;;;;;6279287;22;20030;-66
2022/05/15 04:46:26;;;;;;;5.68;2.63;;;22.10;86.90;;;;;;6279643;22;20003;-66
2022/05/15 04:48:53;;;;;;;8.85;2.95;;;22.20;86.30;;;;;;6280484;22;20022;-67
2022/05/15 04:51:20;;;;;;;6.63;2.60;;;22.20;86.80;;;;;;6306769;22;20031;-66
2022/05/15 04:53:47;;;;;;;6.60;3.30;;;22.20;87.00;;;;;;6306344;22;19996;-67
2022/05/15 04:56:14;;;;;;;9.38;2.97;;;22.10;86.70;;;;;;6306491;22;20006;-67
2022/05/15 04:58:42;;;;;;;6.22;2.97;;;22.10;86.70;;;;;;6253204;22;20007;-66
2022/05/15 05:01:09;;;;;;;8.55;2.92;;;22.10;87.10;;;;;;6306509;22;20434;-67
2022/05/15 05:03:36;;;;;;;10.32;3.08;;;22.10;87.20;;;;;;6306694;22;20006;-66
2022/05/15 05:06:03;;;;;;;10.63;3.58;;;22.10;87.30;;;;;;6278933;22;20008;-67
2022/05/15 05:08:31;;;;;;;8.68;3.50;;;22.00;87.20;;;;;;6306625;22;20202;-66
2022/05/15 05:10:58;;;;;;;8.02;3.10;;;22.00;87.30;;;;;;6306289;22;20372;-67
2022/05/15 05:13:25;;;;;;;8.30;3.42;;;21.90;87.20;;;;;;6278896;22;20003;-67
2022/05/15 05:15:52;;;;;;;4.80;2.67;;;21.80;87.40;;;;;;6306528;22;19999;-66
2022/05/15 05:18:19;;;;;;;12.07;3.33;;;21.80;87.80;;;;;;6304168;22;20303;-66
2022/05/15 05:20:47;;;;;;;6.50;2.85;;;21.80;88.50;;;;;;6305717;22;20012;-66
2022/05/15 05:23:14;;;;;;;9.70;3.20;;;21.70;89.00;;;;;;6305646;22;20003;-66
2022/05/15 05:25:42;;;;;;;8.13;3.17;;;21.60;89.40;;;;;;6305012;22;20042;-66
2022/05/15 05:28:09;;;;;;;6.80;2.90;;;21.50;90.00;;;;;;6269251;22;20022;-66
2022/05/15 05:30:37;;;;;;;8.10;2.97;;;21.50;90.30;;;;;;6336752;22;20082;-66
2022/05/15 05:33:05;;;;;;;6.10;2.90;;;21.50;90.70;;;;;;6309932;22;19999;-66
2022/05/15 05:35:32;;;;;;;8.38;3.33;;;21.40;90.90;;;;;;6337605;22;20034;-66
2022/05/15 05:37:59;;;;;;;7.97;2.90;;;21.40;91.20;;;;;;6337703;22;20127;-66
2022/05/15 05:40:27;;;;;;;6.15;3.10;;;21.30;91.30;;;;;;6337322;22;20366;-66
2022/05/15 05:42:54;;;;;;;8.77;3.47;;;21.30;91.40;;;;;;6309467;22;19999;-66
2022/05/15 05:45:21;;;;;;;10.05;3.00;;;21.30;91.50;;;;;;6337113;22;20010;-66
2022/05/15 05:47:49;;;;;;;7.95;2.90;;;21.30;91.50;;;;;;6337220;22;20318;-66
2022/05/15 05:50:17;;;;;;;7.38;3.05;;;21.30;91.60;;;;;;6337137;22;20010;-66
2022/05/15 05:52:44;;;;;;;5.57;3.05;;;21.30;91.60;;;;;;6284075;22;19999;-66
2022/05/15 05:55:13;;;;;;;5.47;2.78;;;21.30;91.50;;;;;;6337172;22;20076;-66
2022/05/15 05:57:41;;;;;;;8.63;3.08;;;21.30;91.50;;;;;;6309898;22;20003;-66
2022/05/15 06:00:10;;;;;;;10.15;3.15;;;21.30;91.50;;;;;;6308830;22;20003;-67
2022/05/15 06:02:37;;;;;;;6.65;2.88;;;21.30;91.50;;;;;;6337473;22;20014;-66
2022/05/15 06:05:05;;;;;;;10.95;4.85;;;21.30;91.70;;;;;;6337000;22;20011;-66
2022/05/15 06:07:37;;;;;;;6.13;2.90;;;21.30;91.80;;;;;;6336898;22;20397;-67
2022/05/15 06:10:06;;;;;;;6.88;2.80;;;21.30;91.70;;;;;;6308425;22;20011;-65
2022/05/15 06:12:33;;;;;;;7.85;2.90;;;21.30;91.80;;;;;;6335806;22;19994;-66
2022/05/15 06:15:00;;;;;;;11.85;5.43;;;21.30;91.80;;;;;;6336154;22;20022;-66
2022/05/15 06:17:28;;;;;;;8.85;3.45;;;21.30;91.80;;;;;;6336582;22;20053;-66
2022/05/15 06:19:56;;;;;;;9.13;3.28;;;21.30;91.70;;;;;;6308365;22;20010;-69
2022/05/15 06:22:23;;;;;;;7.72;3.13;;;21.30;91.70;;;;;;6331552;22;19998;-66
2022/05/15 06:24:53;;;;;;;6.03;2.88;;;21.30;91.70;;;;;;6332287;22;20034;-66
2022/05/15 06:27:21;;;;;;;6.22;3.35;;;21.30;91.90;;;;;;6326434;22;20070;-65
2022/05/15 06:29:48;;;;;;;8.02;2.92;;;21.30;91.80;;;;;;6300164;22;20015;-66
2022/05/15 06:32:15;;;;;;;7.00;3.25;;;21.30;91.80;;;;;;6273811;22;20014;-67
2022/05/15 06:34:42;;;;;;;4.90;2.72;;;21.30;91.70;;;;;;6300962;22;20007;-67
2022/05/15 06:37:09;;;;;;;11.27;3.20;;;21.30;91.70;;;;;;6273569;22;20007;-66
2022/05/15 06:39:37;;;;;;;7.35;3.05;;;21.30;91.60;;;;;;6298947;22;19999;-66
2022/05/15 06:42:04;;;;;;;10.13;3.40;;;21.20;91.60;;;;;;6301054;22;20014;-66
2022/05/15 06:44:32;;;;;;;5.78;2.80;;;21.20;91.50;;;;;;6300747;22;20128;-66
2022/05/15 06:46:59;;;;;;;5.72;2.40;;;21.20;91.00;;;;;;6300962;22;20072;-66
2022/05/15 06:49:26;;;;;;;7.47;3.08;;;21.20;91.10;;;;;;6272305;22;20342;-66
2022/05/15 06:51:53;;;;;;;4.57;2.60;;;21.20;91.10;;;;;;6300629;22;20086;-67
2022/05/15 06:54:21;;;;;;;6.45;2.47;;;21.20;91.00;;;;;;6301021;22;20066;-65
2022/05/15 06:59:34;;;;;;;6.45;2.80;;;21.20;90.90;;;;;;6299646;22;20062;-65
2022/05/15 07:02:02;;;;;;;5.43;2.80;;;21.20;91.00;;;;;;6300966;22;20065;-66
2022/05/15 07:04:29;;;;;;;5.15;2.67;;;21.10;91.00;;;;;;6301492;22;20003;-65
2022/05/15 07:06:56;;;;;;;6.45;2.80;;;21.20;91.10;;;;;;6275909;22;20011;-66
2022/05/15 07:09:23;;;;;;;6.18;2.97;;;21.10;91.20;;;;;;6302891;22;20042;-66
2022/05/15 07:11:51;;;;;;;5.32;2.80;;;21.10;91.20;;;;;;6303010;22;20373;-67
2022/05/15 07:14:18;;;;;;;7.45;2.75;;;21.10;91.30;;;;;;6302777;22;20003;-66
2022/05/15 07:16:45;;;;;;;4.70;2.90;;;21.10;91.40;;;;;;6302546;22;20035;-66
2022/05/15 07:19:12;;;;;;;4.22;2.42;;;21.10;91.40;;;;;;6275883;22;20011;-66
2022/05/15 07:21:39;;;;;;;7.88;3.10;;;21.10;91.30;;;;;;6303161;22;19999;-66
2022/05/15 07:24:07;;;;;;;6.80;2.72;;;21.10;91.40;;;;;;6302686;22;20016;-66
2022/05/15 07:26:34;;;;;;;6.18;3.42;;;21.10;91.30;;;;;;6303158;22;20004;-65
2022/05/15 07:29:01;;;;;;;6.30;2.83;;;21.10;91.20;;;;;;6303074;22;20015;-64
2022/05/15 07:31:28;;;;;;;6.07;2.70;;;21.10;91.20;;;;;;6303294;22;20015;-65
2022/05/15 07:33:56;;;;;;;3.42;2.55;;;21.00;91.20;;;;;;6274360;22;20414;-66
2022/05/15 07:36:23;;;;;;;7.60;2.88;;;21.00;91.40;;;;;;6303224;22;20013;-66
2022/05/15 07:38:50;;;;;;;5.65;2.85;;;21.10;91.40;;;;;;6272981;22;20057;-66
2022/05/15 07:41:17;;;;;;;5.72;2.88;;;21.10;91.20;;;;;;6303287;22;20010;-66
2022/05/15 07:43:44;;;;;;;4.93;2.80;;;21.10;91.00;;;;;;6302456;22;20011;-66
2022/05/15 07:46:12;;;;;;;6.70;3.25;;;21.10;91.10;;;;;;6301897;22;19999;-66
2022/05/15 07:48:39;;;;;;;6.13;2.85;;;21.00;91.00;;;;;;6302241;22;20011;-66
2022/05/15 07:51:06;;;;;;;5.18;3.33;;;21.10;91.00;;;;;;6302532;22;20022;-67
2022/05/15 07:53:33;;;;;;;7.72;3.03;;;21.00;91.00;;;;;;6303043;22;20026;-67
2022/05/15 07:56:03;;;;;;;7.75;3.40;;;21.00;91.10;;;;;;6303507;22;20318;-67
2022/05/15 07:58:30;;;;;;;;;;;21.00;91.00;;;;;;6276909;22;20000;-66
2022/05/15 08:00:57;;;;;;;7.07;3.20;;;21.00;91.20;;;;;;6275665;22;20317;-67
2022/05/15 08:03:24;;;;;;;6.68;2.97;;;21.00;91.00;;;;;;6276014;22;20003;-65
2022/05/15 08:08:37;;;;;;;7.55;3.53;;;21.00;90.80;;;;;;6302563;22;20535;-66
2022/05/15 08:11:04;;;;;;;7.72;3.45;;;21.00;90.80;;;;;;6302936;22;20015;-67
2022/05/15 08:13:32;;;;;;;6.20;3.10;;;21.00;90.90;;;;;;6302754;22;20003;-66
2022/05/15 08:15:59;;;;;;;9.15;3.38;;;21.00;91.00;;;;;;6302360;22;20027;-65
2022/05/15 08:23:59;;;;;;;8.38;4.35;;;21.00;91.50;;;;;;6301326;22;20011;-68
2022/05/15 08:26:27;;;;;;;8.80;4.43;;;20.90;91.50;;;;;;6302457;22;20410;-66
2022/05/15 08:28:54;;;;;;;10.57;4.20;;;20.90;91.50;;;;;;6294560;22;20073;-66
2022/05/15 08:31:24;;;;;;;8.93;3.97;;;20.90;91.50;;;;;;6301058;22;20019;-67
2022/05/15 08:33:51;;;;;;;8.73;4.05;;;20.90;91.50;;;;;;6302037;22;20010;-67
2022/05/15 08:36:18;;;;;;;6.85;3.63;;;20.90;91.50;;;;;;6302815;22;20010;-66
2022/05/15 08:38:45;;;;;;;6.38;3.45;;;20.90;91.40;;;;;;6299804;22;20006;-67
2022/05/15 08:41:30;;;;;;;7.82;3.83;;;20.90;91.40;;;;;;6301502;22;20011;-69
2022/05/15 08:44:27;;;;;;;8.60;3.97;;;20.90;91.40;;;;;;6303082;22;20748;-66
2022/05/15 08:46:56;;;;;;;6.25;3.60;;;20.90;91.40;;;;;;6301204;22;20023;-66
2022/05/15 08:49:28;;;;;;;7.15;4.10;;;20.90;91.60;;;;;;6302319;22;20007;-66
2022/05/15 08:51:59;;;;;;;7.78;4.28;;;20.90;91.70;;;;;;6300935;22;20030;-66
2022/05/15 08:54:27;;;;;;;9.82;5.03;;;20.90;91.80;;;;;;6301263;22;20018;-66
2022/05/15 08:56:54;;;;;;;10.55;4.65;;;20.90;91.80;;;;;;6300969;22;20011;-66
2022/05/15 08:59:30;;;;;;;10.98;4.60;;;20.90;91.90;;;;;;6274943;22;20006;-67
2022/05/15 09:01:59;;;;;;;7.72;4.90;;;20.90;92.00;;;;;;6300862;22;20434;-67
2022/05/15 09:04:26;;;;;;;10.85;5.07;;;20.90;92.20;;;;;;6301115;22;20000;-66
2022/05/15 09:07:29;;;;;;;8.77;4.65;;;20.90;92.30;;;;;;6300910;22;20011;-67
2022/05/15 09:10:02;;;;;;;9.93;4.80;;;20.90;92.40;;;;;;6237894;22;20042;-67
2022/05/15 09:12:29;;;;;;;11.52;4.93;;;20.90;92.50;;;;;;6302500;22;20007;-67
2022/05/15 09:15:04;;;;;;;11.73;5.75;;;20.90;92.70;;;;;;6275554;22;20078;-68
2022/05/15 09:17:47;;;;;;;12.90;5.55;;;20.90;92.80;;;;;;6302929;22;20003;-67
2022/05/15 09:20:26;;;;;;;11.25;5.82;;;20.90;92.80;;;;;;6300443;22;20441;-65
2022/05/15 09:23:07;;;;;;;10.03;5.23;;;20.90;92.90;;;;;;6301941;22;19999;-65
2022/05/15 09:25:36;;;;;;;9.93;4.47;;;20.90;93.00;;;;;;6300345;22;20066;-67
2022/05/15 09:28:04;;;;;;;13.02;5.47;;;20.80;93.10;;;;;;6302269;22;20093;-66
2022/05/15 09:30:42;;;;;;;12.95;5.07;;;20.90;93.30;;;;;;6302227;22;20019;-67
2022/05/15 09:33:23;;;;;;;10.82;4.70;;;20.90;93.30;;;;;;6301592;22;20030;-67
2022/05/15 09:35:51;;;;;;;10.52;5.13;;;20.80;93.50;;;;;;6249883;22;20022;-68
2022/05/15 09:38:28;;;;;;;10.77;5.53;;;20.80;93.50;;;;;;6299817;22;20436;-68
2022/05/15 09:43:52;;;;;;;11.18;5.45;;;20.80;93.70;;;;;;6278623;22;20506;-67
2022/05/15 09:46:21;;;;;;;11.00;6.15;;;20.80;93.80;;;;;;6249612;22;20080;-67
2022/05/15 09:49:14;;;;;;;11.43;5.90;;;20.80;93.80;;;;;;6275414;22;20006;-67
2022/05/15 09:51:48;;;;;;;14.68;5.68;;;20.70;93.90;;;;;;6253350;22;20015;-67
2022/05/15 09:54:38;;;;;;;11.93;5.60;;;20.80;94.10;;;;;;6249672;22;20018;-68
2022/05/15 09:57:09;;;;;;;;;;;20.70;94.30;;;;;;6302634;22;20068;-67
2022/05/15 09:59:36;;;;;;;13.43;6.05;;;20.70;94.30;;;;;;6301735;22;19917;-66
2022/05/15 10:02:04;;;;;;;13.13;6.10;;;20.70;94.30;;;;;;6301696;22;20113;-66
2022/05/15 10:04:33;;;;;;;13.77;6.10;;;20.70;94.40;;;;;;6301934;22;20083;-66
2022/05/15 10:07:05;;;;;;;15.98;6.63;;;20.70;94.50;;;;;;6274834;22;20027;-67
2022/05/15 10:09:36;;;;;;;11.38;6.38;;;20.60;94.50;;;;;;6301263;22;20011;-67
2022/05/15 10:12:15;;;;;;;17.30;6.75;;;20.60;94.50;;;;;;6301644;22;20078;-67
2022/05/15 10:14:52;;;;;;;11.70;6.05;;;20.60;94.50;;;;;;6276540;22;20007;-67
2022/05/15 10:17:19;;;;;;;15.10;6.57;;;20.60;94.60;;;;;;6301609;22;20078;-68
2022/05/15 10:20:17;;;;;;;15.05;6.90;;;20.60;94.50;;;;;;6249530;22;19999;-67
2022/05/15 10:23:04;;;;;;;13.93;6.50;;;20.50;94.50;;;;;;6285050;22;20011;-67
2022/05/15 10:25:46;;;;;;;16.10;6.80;;;20.50;94.50;;;;;;6280820;22;20014;-68
2022/05/15 10:28:28;;;;;;;14.63;6.68;;;20.50;94.60;;;;;;6305447;22;20417;-67
2022/05/15 10:31:01;;;;;;;11.25;6.05;;;20.50;94.60;;;;;;6278562;22;20095;-67
2022/05/15 10:33:29;;;;;;;12.02;6.32;;;20.50;94.60;;;;;;6305787;22;20007;-67
2022/05/15 10:36:07;;;;;;;14.45;6.50;;;20.50;94.60;;;;;;6253078;22;20006;-68
2022/05/15 10:38:59;;;;;;;13.68;6.70;;;20.40;94.70;;;;;;6278522;22;20003;-67
2022/05/15 10:42:03;;;;;;;15.45;6.40;;;20.50;94.70;;;;;;6308961;22;20414;-67
2022/05/15 10:44:52;;;;;;;10.95;6.30;;;20.40;94.60;;;;;;6300984;22;20035;-67
2022/05/15 10:47:22;;;;;;;13.60;6.63;;;20.40;94.70;;;;;;6308429;22;20065;-67
2022/05/15 10:50:45;;;;;;;14.52;6.45;;;20.30;94.70;;;;;;6281306;22;20420;-67
2022/05/15 11:00:05;;;;;;;14.10;6.20;;;20.30;94.80;;;;;;6285998;22;19914;-67
2022/05/15 11:02:54;;;;;;;14.48;6.97;;;20.30;94.80;;;;;;6281673;22;20037;-67
2022/05/15 11:05:28;;;;;;;18.58;8.52;;;20.30;94.80;;;;;;6308558;22;20002;-67
2022/05/15 11:08:25;;;;;;;22.88;8.63;;;20.20;94.80;;;;;;6308284;22;20007;-67
2022/05/15 11:11:08;;;;;;;17.73;8.35;;;20.20;94.90;;;;;;6308673;22;20011;-67
2022/05/15 11:13:55;;;;;;;17.45;8.05;;;20.20;95.00;;;;;;6281796;22;20052;-67
2022/05/15 11:16:50;;;;;;;19.35;9.65;;;20.20;95.10;;;;;;6280847;22;20007;-67
2022/05/15 11:19:35;;;;;;;18.98;8.68;;;20.20;95.10;;;;;;6308382;22;20003;-67
2022/05/15 11:22:31;;;;;;;16.25;8.10;;;20.20;95.10;;;;;;6256595;22;20000;-67
2022/05/15 11:25:19;;;;;;;11.52;7.18;;;20.20;95.10;;;;;;6281367;22;20502;-68
2022/05/15 11:27:57;;;;;;;18.15;7.90;;;20.20;95.20;;;;;;6287766;22;20034;-67
2022/05/15 11:30:27;;;;;;;13.77;7.15;;;20.20;95.20;;;;;;6306718;22;20038;-67
2022/05/15 11:32:54;;;;;;;14.82;7.53;;;20.20;95.20;;;;;;6308141;22;20092;-67
2022/05/15 11:35:21;;;;;;;14.02;8.00;;;20.20;95.20;;;;;;6307797;22;20409;-67
2022/05/15 11:37:57;;;;;;;15.98;7.40;;;20.20;95.20;;;;;;6308412;22;19995;-67
2022/05/15 11:40:41;;;;;;;13.68;6.75;;;20.20;95.20;;;;;;6308500;22;20007;-67
2022/05/15 11:43:26;;;;;;;12.02;7.10;;;20.20;95.20;;;;;;6307607;22;20045;-67
2022/05/15 11:45:57;;;;;;;11.77;6.70;;;20.10;95.10;;;;;;6307587;22;20060;-67
2022/05/15 11:48:34;;;;;;;11.00;5.78;;;20.20;95.10;;;;;;6308239;22;20023;-67
2022/05/15 11:51:04;;;;;;;9.73;5.85;;;20.10;94.80;;;;;;6306045;22;20022;-67
2022/05/15 11:54:04;;;;;;;8.82;5.75;;;20.10;94.90;;;;;;6305354;22;20007;-67
2022/05/15 11:56:41;;;;;;;9.52;5.10;;;20.10;94.70;;;;;;6304695;22;20387;-68
2022/05/15 11:59:30;;;;;;;9.00;5.22;;;20.00;94.60;;;;;;6305200;22;20056;-67
2022/05/15 12:02:05;;;;;;;10.23;4.55;;;20.00;94.50;;;;;;6306680;22;20018;-68
2022/05/15 12:04:35;;;;;;;9.13;4.93;;;20.00;94.40;;;;;;6305072;22;20071;-67
2022/05/15 12:07:02;;;;;;;;;;;20.00;94.30;;;;;;6307869;22;20311;-67
2022/05/15 12:09:30;;;;;;;9.88;4.97;;;20.00;94.30;;;;;;6306460;22;19899;-68
2022/05/15 12:12:17;;;;;;;12.88;5.07;;;19.90;94.20;;;;;;6306816;22;20007;-67
2022/05/15 12:15:08;;;;;;;10.52;4.60;;;19.90;94.10;;;;;;6306915;22;20006;-68
2022/05/15 12:17:40;;;;;;;9.15;4.40;;;19.90;94.00;;;;;;6307056;22;20011;-68
2022/05/15 12:20:07;;;;;;;5.88;3.80;;;19.80;93.80;;;;;;6304255;22;20007;-67
2022/05/15 12:22:38;;;;;;;7.72;3.40;;;19.80;93.60;;;;;;6307145;22;20007;-67
2022/05/15 12:25:14;;;;;;;6.60;3.55;;;19.80;93.40;;;;;;6307056;22;20007;-67
2022/05/15 12:30:51;;;;;;;12.27;3.67;;;19.70;92.70;;;;;;6306726;22;20088;-67
2022/05/15 12:33:27;;;;;;;5.80;3.30;;;19.70;92.50;;;;;;6306781;22;20082;-67
2022/05/15 12:35:55;;;;;;;6.28;3.60;;;19.60;92.50;;;;;;6254154;22;20018;-67
2022/05/15 12:38:23;;;;;;;5.93;3.00;;;19.60;92.40;;;;;;6279628;22;20003;-67
2022/05/15 12:41:03;;;;;;;4.97;3.10;;;19.60;92.20;;;;;;6254341;22;20083;-67
2022/05/15 12:43:34;;;;;;;6.50;3.25;;;19.60;92.20;;;;;;6279122;22;20106;-67
2022/05/15 12:46:02;;;;;;;5.38;2.67;;;19.60;92.00;;;;;;6306479;22;20078;-67
2022/05/15 12:48:29;;;;;;;5.40;2.70;;;19.50;91.90;;;;;;6279658;22;20011;-67
2022/05/15 12:51:06;;;;;;;4.00;2.60;;;19.50;92.00;;;;;;6306540;22;20017;-67
2022/05/15 12:53:39;;;;;;;5.22;3.03;;;19.50;91.90;;;;;;6307035;22;20005;-67
2022/05/15 12:56:30;;;;;;;4.90;3.20;;;19.50;91.90;;;;;;6279606;22;20007;-67
2022/05/15 12:59:07;;;;;;;5.13;2.80;;;19.40;91.90;;;;;;6306293;22;19999;-67
2022/05/15 13:01:34;;;;;;;3.80;2.70;;;19.40;91.90;;;;;;6306469;22;20074;-67
2022/05/15 13:04:04;;;;;;;4.03;2.25;;;19.40;91.60;;;;;;6306473;22;20004;-67
2022/05/15 13:06:35;;;;;;;8.02;2.60;;;19.40;91.30;;;;;;6306543;22;20393;-67
2022/05/15 13:09:08;;;;;;;5.38;2.33;;;19.30;91.40;;;;;;6305886;22;20334;-67
2022/05/15 13:11:42;;;;;;;4.10;2.65;;;19.30;91.50;;;;;;6306440;22;20092;-67
2022/05/15 13:14:37;;;;;;;6.80;2.42;;;19.30;91.90;;;;;;6279525;22;19999;-67
2022/05/15 13:17:05;;;;;;;6.20;2.90;;;19.30;92.10;;;;;;6258300;22;20011;-67
2022/05/15 13:19:35;;;;;;;2.95;2.30;;;19.30;92.30;;;;;;6306215;22;20026;-67
2022/05/15 13:22:03;;;;;;;3.42;2.50;;;19.30;92.00;;;;;;6254291;22;20066;-67
2022/05/15 13:24:33;;;;;;;4.57;2.30;;;19.30;92.10;;;;;;6254013;22;20421;-67
2022/05/15 13:27:00;;;;;;;;;;;19.30;91.70;;;;;;6308860;22;20242;-67
2022/05/15 13:29:30;;;;;;;3.65;1.80;;;19.30;91.70;;;;;;6306304;22;19972;-67
2022/05/15 13:31:58;;;;;;;4.25;2.42;;;19.30;91.30;;;;;;6253997;22;20359;-67